createdAt,value
2022-09-18T00:01:35.737Z,96629.34
2022-09-18T00:04:09.589Z,96625.88
2022-09-18T00:06:40.692Z,96625.34
2022-09-18T00:09:12.780Z,96629.44
2022-09-18T00:11:45.273Z,96623.88
2022-09-18T00:14:15.976Z,96627.91
2022-09-18T00:16:43.494Z,96628.38
2022-09-18T00:19:13.029Z,96632.41
2022-09-18T00:21:42.912Z,96631.25
2022-09-18T00:24:10.857Z,96632.88
2022-09-18T00:26:38.662Z,96628.47
2022-09-18T00:29:06.861Z,96633.50
2022-09-18T00:31:36.621Z,96640.31
2022-09-18T00:34:07.671Z,96629.72
2022-09-18T00:36:37.308Z,96630.53
2022-09-18T00:39:05.689Z,96626.31
2022-09-18T00:41:35.159Z,96633.31
2022-09-18T00:44:32.115Z,96635.91
2022-09-18T00:47:05.854Z,96631.69
2022-09-18T00:49:33.802Z,96636.75
2022-09-18T00:52:03.640Z,96632.31
2022-09-18T00:54:34.796Z,96636.53
2022-09-18T00:57:05.913Z,96641.75
2022-09-18T00:59:35.392Z,96641.97
2022-09-18T01:02:03.673Z,96639.53
2022-09-18T01:04:32.022Z,96637.09
2022-09-18T01:07:10.582Z,96650.75
2022-09-18T01:09:48.295Z,96645.38
2022-09-18T01:12:23.754Z,96646.97
2022-09-18T01:14:59.631Z,96645.38
2022-09-18T01:17:33.433Z,96640.16
2022-09-18T01:20:21.536Z,96641.75
2022-09-18T01:23:11.175Z,96652.19
2022-09-18T01:25:51.455Z,96645.38
2022-09-18T01:28:25.409Z,96636.75
2022-09-18T01:30:57.768Z,96637.72
2022-09-18T01:33:31.455Z,96633.31
2022-09-18T01:36:03.329Z,96637.72
2022-09-18T01:38:36.052Z,96647.34
2022-09-18T01:41:08.967Z,96635.28
2022-09-18T01:43:40.413Z,96638.91
2022-09-18T01:46:12.167Z,96635.81
2022-09-18T01:48:44.595Z,96637.00
2022-09-18T01:51:18.401Z,96639.59
2022-09-18T01:53:49.209Z,96635.19
2022-09-18T01:56:20.928Z,96634.38
2022-09-18T01:58:52.487Z,96636.38
2022-09-18T02:01:23.179Z,96631.16
2022-09-18T02:03:57.669Z,96633.59
2022-09-18T02:06:30.492Z,96638.63
2022-09-18T02:09:00.630Z,96632.25
2022-09-18T02:11:28.764Z,96636.28
2022-09-18T02:14:01.295Z,96632.88
2022-09-18T02:16:33.393Z,96631.25
2022-09-18T02:19:06.840Z,96622.44
2022-09-18T02:21:34.374Z,96628.47
2022-09-18T02:24:06.808Z,96622.25
2022-09-18T02:26:36.091Z,96628.47
2022-09-18T02:29:07.568Z,96627.84
2022-09-18T02:31:37.667Z,96626.81
2022-09-18T02:34:08.276Z,96623.25
2022-09-18T02:36:51.962Z,96625.84
2022-09-18T02:39:33.543Z,96621.19
2022-09-18T02:42:10.138Z,96625.59
2022-09-18T02:44:48.559Z,96625.38
2022-09-18T02:47:27.071Z,96619.19
2022-09-18T02:50:01.096Z,96618.75
2022-09-18T02:52:33.722Z,96616.78
2022-09-18T02:55:08.971Z,96625.22
2022-09-18T02:57:40.037Z,96619.19
2022-09-18T03:00:12.387Z,96617.41
2022-09-18T03:02:39.901Z,96622.63
2022-09-18T03:05:08.491Z,96615.59
2022-09-18T03:07:36.151Z,96620.00
2022-09-18T03:10:03.652Z,96612.34
2022-09-18T03:12:31.228Z,96611.56
2022-09-18T03:14:58.754Z,96608.94
2022-09-18T03:17:27.587Z,96615.75
2022-09-18T03:19:55.112Z,96616.78
2022-09-18T03:22:22.560Z,96611.94
2022-09-18T03:24:50.331Z,96613.91
2022-09-18T03:27:18.153Z,96619.13
2022-09-18T03:29:46.137Z,96623.31
2022-09-18T03:32:13.627Z,96610.28
2022-09-18T03:34:42.720Z,96616.50
2022-09-18T03:37:10.213Z,96610.66
2022-09-18T03:39:37.940Z,96618.47
2022-09-18T03:42:05.811Z,96627.09
2022-09-18T03:44:33.271Z,96617.47
2022-09-18T03:47:00.753Z,96615.69
2022-09-18T03:49:28.255Z,96618.28
2022-09-18T03:51:57.086Z,96617.47
2022-09-18T03:54:24.606Z,96620.25
2022-09-18T03:56:52.088Z,96627.09
2022-09-18T03:59:19.590Z,96620.25
2022-09-18T04:01:47.379Z,96615.69
2022-09-18T04:04:14.977Z,96626.75
2022-09-18T04:06:42.463Z,96619.13
2022-09-18T04:09:11.287Z,96621.09
2022-09-18T04:11:38.758Z,96622.69
2022-09-18T04:14:06.306Z,96631.53
2022-09-18T04:16:33.825Z,96619.47
2022-09-18T04:19:01.335Z,96623.06
2022-09-18T04:21:28.850Z,96621.09
2022-09-18T04:23:59.491Z,96632.31
2022-09-18T04:26:28.427Z,96631.53
2022-09-18T04:28:55.920Z,96629.53
2022-09-18T04:31:23.465Z,96625.31
2022-09-18T04:33:51.081Z,96623.50
2022-09-18T04:36:18.577Z,96630.50
2022-09-18T04:38:46.026Z,96627.91
2022-09-18T04:41:13.579Z,96634.75
2022-09-18T04:43:43.370Z,96631.53
2022-09-18T04:46:10.964Z,96634.75
2022-09-18T04:48:38.592Z,96632.94
2022-09-18T04:51:06.369Z,96634.28
2022-09-18T04:53:35.393Z,96630.69
2022-09-18T04:56:03.267Z,96627.09
2022-09-18T04:58:30.906Z,96631.16
2022-09-18T05:01:00.383Z,96635.19
2022-09-18T05:03:27.920Z,96632.78
2022-09-18T05:05:56.194Z,96641.25
2022-09-18T05:08:24.614Z,96642.84
2022-09-18T05:10:52.115Z,96639.88
2022-09-18T05:13:19.557Z,96642.47
2022-09-18T05:15:47.061Z,96641.50
2022-09-18T05:18:15.986Z,96640.69
2022-09-18T05:20:43.471Z,96647.69
2022-09-18T05:23:10.967Z,96646.09
2022-09-18T05:25:38.456Z,96647.06
2022-09-18T05:28:06.311Z,96647.25
2022-09-18T05:30:34.177Z,96653.28
2022-09-18T05:43:46.430Z,96651.94
2022-09-18T05:46:15.210Z,96645.72
2022-09-18T05:57:53.032Z,96648.06
2022-09-18T06:00:21.980Z,96658.31
2022-09-18T06:02:56.629Z,96658.94
2022-09-18T06:05:24.418Z,96660.72
2022-09-18T06:07:54.478Z,96655.88
2022-09-18T06:10:24.182Z,96663.88
2022-09-18T06:12:51.838Z,96659.66
2022-09-18T06:15:19.392Z,96665.84
2022-09-18T06:17:53.202Z,96663.78
2022-09-18T06:20:20.678Z,96660.75
2022-09-18T06:22:48.303Z,96662.22
2022-09-18T06:25:19.127Z,96664.19
2022-09-18T06:27:46.590Z,96670.75
2022-09-18T06:30:14.604Z,96675.31
2022-09-18T06:33:18.960Z,96674.50
2022-09-18T06:35:51.902Z,96673.72
2022-09-18T06:38:26.504Z,96674.88
2022-09-18T06:40:55.097Z,96685.31
2022-09-18T06:43:22.599Z,96673.25
2022-09-18T07:12:00.957Z,96667.94
2022-09-18T07:17:19.806Z,96666.59
2022-09-18T07:20:06.723Z,96665.59
2022-09-18T11:35:22.739Z,96690.97
2022-09-18T11:37:54.262Z,96677.25
2022-09-18T11:40:27.671Z,96682.91
2022-09-18T11:43:05.940Z,96684.72
2022-09-18T11:45:47.927Z,96662.28
2022-09-18T11:48:25.874Z,96670.44
2022-09-18T11:51:01.916Z,96665.50
2022-09-18T11:53:33.926Z,96658.88
2022-09-18T11:56:10.096Z,96655.97
2022-09-18T11:58:43.567Z,96653.66
2022-09-18T12:01:19.316Z,96660.94
2022-09-18T12:03:52.643Z,96658.19
2022-09-18T12:06:28.909Z,96657.69
2022-09-18T12:09:01.701Z,96658.75
2022-09-18T12:11:43.151Z,96652.16
2022-09-18T12:14:17.884Z,96653.22
2022-09-18T12:16:53.859Z,96638.72
2022-09-18T12:19:25.925Z,96644.72
2022-09-18T12:22:00.165Z,96644.69
2022-09-18T12:24:28.934Z,96631.31
2022-09-18T12:27:07.051Z,96631.31
2022-09-18T12:29:45.249Z,96613.50
2022-09-18T12:32:28.474Z,96610.53
2022-09-18T12:35:02.609Z,96624.00
2022-09-18T12:37:47.737Z,96603.22
2022-09-18T12:40:47.967Z,96614.63
2022-09-18T12:43:39.686Z,96617.94
2022-09-18T12:46:35.045Z,96611.13
2022-09-18T12:49:21.265Z,96599.84
2022-09-18T12:51:53.005Z,96596.03
2022-09-18T12:54:36.151Z,96595.84
2022-09-18T12:57:20.659Z,96587.81
2022-09-18T12:59:59.622Z,96582.94
2022-09-18T13:02:38.923Z,96587.84
2022-09-18T13:05:14.027Z,96585.84
2022-09-18T13:07:45.958Z,96578.00
2022-09-18T13:10:21.604Z,96585.47
2022-09-18T13:12:55.849Z,96586.69
2022-09-18T13:15:30.332Z,96587.94
2022-09-18T13:18:10.810Z,96584.91
2022-09-18T13:20:43.790Z,96587.13
2022-09-18T13:23:18.785Z,96583.34
2022-09-18T13:25:51.873Z,96570.00
2022-09-18T13:28:23.140Z,96575.88
2022-09-18T13:31:16.991Z,96580.09
2022-09-18T13:33:50.832Z,96569.22
2022-09-18T13:36:25.995Z,96573.06
2022-09-18T13:38:54.818Z,96570.84
2022-09-18T13:41:24.228Z,96570.84
2022-09-18T13:43:58.459Z,96563.00
2022-09-18T13:46:39.758Z,96575.53
2022-09-18T13:49:19.631Z,96577.97
2022-09-18T13:51:48.182Z,96567.31
2022-09-18T13:54:25.123Z,96564.28
2022-09-18T13:57:29.782Z,96548.72
2022-09-18T14:00:00.494Z,96557.03
2022-09-18T14:02:37.595Z,96558.84
2022-09-18T14:05:30.819Z,96555.81
2022-09-18T14:08:20.060Z,96559.44
2022-09-18T14:11:15.505Z,96555.22
2022-09-18T14:13:51.441Z,96546.75
2022-09-18T14:16:31.940Z,96557.22
2022-09-18T14:19:04.307Z,96549.38
2022-09-18T14:21:34.017Z,96552.19
2022-09-18T14:24:24.369Z,96544.72
2022-09-18T14:27:22.820Z,96544.13
2022-09-18T14:29:56.817Z,96550.97
2022-09-18T14:32:26.395Z,96551.19
2022-09-18T14:35:18.217Z,96546.16
2022-09-18T14:37:46.376Z,96543.13
2022-09-18T14:40:20.542Z,96545.34
2022-09-18T14:42:49.371Z,96537.88
2022-09-18T14:45:29.963Z,96541.13
2022-09-18T14:47:58.655Z,96539.28
2022-09-18T14:50:32.349Z,96535.06
2022-09-18T14:53:21.005Z,96538.09
2022-09-18T14:55:52.806Z,96535.88
2022-09-18T14:58:22.691Z,96538.91
2022-09-18T15:00:56.074Z,96534.66
2022-09-18T15:03:29.247Z,96539.72
2022-09-18T15:06:06.949Z,96528.63
2022-09-18T15:08:35.175Z,96526.81
2022-09-18T15:11:03.356Z,96527.81
2022-09-18T15:13:37.920Z,96529.59
2022-09-18T15:16:07.673Z,96517.53
2022-09-18T15:18:42.429Z,96511.50
2022-09-18T15:21:22.109Z,96514.91
2022-09-18T15:23:50.159Z,96507.84
2022-09-18T15:26:19.160Z,96516.31
2022-09-18T15:28:49.581Z,96516.94
2022-09-18T15:31:25.158Z,96514.31
2022-09-18T15:33:58.167Z,96518.75
2022-09-18T15:36:28.918Z,96510.88
2022-09-18T15:38:58.145Z,96517.13
2022-09-18T15:41:37.865Z,96514.31
2022-09-18T15:44:06.687Z,96504.03
2022-09-18T15:46:37.719Z,96504.44
2022-09-18T15:49:29.978Z,96515.94
2022-09-18T15:51:57.833Z,96507.47
2022-09-18T15:54:27.942Z,96513.88
2022-09-18T15:56:58.112Z,96512.28
2022-09-18T15:59:31.170Z,96508.22
2022-09-18T16:02:04.794Z,96502.56
2022-09-18T16:04:34.063Z,96499.53
2022-09-18T16:07:05.767Z,96498.13
2022-09-18T16:09:38.582Z,96497.34
2022-09-18T16:12:27.440Z,96484.25
2022-09-18T16:15:12.682Z,96497.34
2022-09-18T16:18:24.769Z,96500.97
2022-09-18T16:21:04.360Z,96491.69
2022-09-18T16:23:34.214Z,96486.84
2022-09-18T16:26:08.794Z,96486.66
2022-09-18T16:28:40.800Z,96482.41
2022-09-18T16:31:08.595Z,96474.97
2022-09-18T16:33:59.154Z,96471.75
2022-09-18T16:36:32.449Z,96474.78
2022-09-18T16:39:08.275Z,96476.78
2022-09-18T16:41:36.554Z,96476.78
2022-09-18T16:44:05.516Z,96479.00
2022-09-18T16:46:39.346Z,96479.59
2022-09-18T16:49:08.963Z,96484.66
2022-09-18T16:51:37.221Z,96474.16
2022-09-18T16:54:05.536Z,96477.78
2022-09-18T16:56:36.295Z,96476.56
2022-09-18T16:59:07.586Z,96470.31
2022-09-18T17:01:54.187Z,96472.53
2022-09-18T17:04:27.179Z,96467.09
2022-09-18T17:06:55.846Z,96467.47
2022-09-18T17:09:24.939Z,96466.88
2022-09-18T17:11:53.369Z,96469.47
2022-09-18T17:14:21.657Z,96468.69
2022-09-18T17:16:50.548Z,96464.25
2022-09-18T17:19:25.341Z,96467.88
2022-09-18T17:21:58.991Z,96466.25
2022-09-18T17:24:27.996Z,96464.25
2022-09-18T17:26:56.039Z,96459.63
2022-09-18T17:29:26.846Z,96459.00
2022-09-18T17:31:54.967Z,96457.59
2022-09-18T17:34:22.985Z,96456.59
2022-09-18T17:36:51.173Z,96453.38
2022-09-18T17:39:20.405Z,96453.13
2022-09-18T17:41:59.551Z,96453.34
2022-09-18T17:44:28.848Z,96451.72
2022-09-18T17:47:06.294Z,96453.75
2022-09-18T17:49:34.289Z,96453.94
2022-09-18T17:52:02.278Z,96449.91
2022-09-18T17:54:33.685Z,96457.13
2022-09-18T17:57:01.181Z,96452.13
2022-09-18T17:59:30.039Z,96447.88
2022-09-18T18:01:57.580Z,96448.28
2022-09-18T18:04:25.103Z,96439.81
2022-09-18T18:06:53.335Z,96439.41
2022-09-18T18:09:21.068Z,96445.03
2022-09-18T18:11:50.907Z,96449.84
2022-09-18T18:14:19.035Z,96455.25
2022-09-18T18:16:49.770Z,96447.63
2022-09-18T18:19:19.513Z,96446.00
2022-09-18T18:21:47.083Z,96441.78
2022-09-18T18:24:16.930Z,96456.06
2022-09-18T18:26:45.536Z,96446.78
2022-09-18T18:29:27.313Z,96457.06
2022-09-18T18:31:55.326Z,96458.88
2022-09-18T18:34:25.221Z,96448.81
2022-09-18T18:36:53.204Z,96452.22
2022-09-18T18:39:20.849Z,96449.63
2022-09-18T18:41:48.620Z,96448.59
2022-09-18T18:44:16.305Z,96449.63
2022-09-18T18:46:45.140Z,96447.41
2022-09-18T18:49:15.501Z,96454.06
2022-09-18T18:51:47.377Z,96439.19
2022-09-18T18:54:16.303Z,96450.03
2022-09-18T18:56:44.401Z,96450.84
2022-09-18T18:59:14.757Z,96445.63
2022-09-18T19:01:43.243Z,96456.09
2022-09-18T19:04:14.310Z,96463.09
2022-09-18T19:06:44.345Z,96464.94
2022-09-18T19:09:18.048Z,96473.00
2022-09-18T19:11:49.205Z,96479.38
2022-09-18T19:14:19.678Z,96468.94
2022-09-18T19:16:48.205Z,96470.94
2022-09-18T19:19:18.697Z,96471.34
2022-09-18T19:21:46.503Z,96465.50
2022-09-18T19:24:14.499Z,96470.28
2022-09-18T19:26:43.255Z,96464.25
2022-09-18T19:29:13.406Z,96472.09
2022-09-18T19:31:42.812Z,96469.50
2022-09-18T19:34:11.843Z,96465.28
2022-09-18T19:36:41.145Z,96456.81
2022-09-18T19:39:11.723Z,96458.63
2022-09-18T19:41:44.375Z,96459.00
2022-09-18T19:44:13.561Z,96453.97
2022-09-18T19:46:41.605Z,96443.09
2022-09-18T19:49:17.987Z,96433.00
2022-09-18T19:51:47.544Z,96444.31
2022-09-18T19:54:15.017Z,96447.28
2022-09-18T19:56:47.007Z,96443.25
2022-09-18T19:59:15.191Z,96457.97
2022-09-18T20:01:42.827Z,96466.00
2022-09-18T20:04:10.468Z,96470.41
2022-09-18T20:06:40.431Z,96468.97
2022-09-18T20:09:10.124Z,96466.56
2022-09-18T20:11:37.726Z,96461.53
2022-09-18T20:14:05.197Z,96456.66
2022-09-18T20:16:32.810Z,96454.06
2022-09-18T20:19:01.116Z,96451.44
2022-09-18T20:21:29.723Z,96441.16
2022-09-18T20:23:58.721Z,96437.75
2022-09-18T20:26:28.831Z,96440.13
2022-09-18T20:28:56.533Z,96448.97
2022-09-18T20:31:24.827Z,96448.19
2022-09-18T20:33:56.071Z,96445.34
2022-09-18T20:36:25.763Z,96453.00
2022-09-18T20:39:01.000Z,96447.34
2022-09-18T20:41:30.248Z,96454.19
2022-09-18T20:44:01.226Z,96461.41
2022-09-18T20:46:29.010Z,96458.19
2022-09-18T20:48:56.640Z,96464.44
2022-09-18T20:51:28.957Z,96467.41
2022-09-18T20:53:58.671Z,96470.41
2022-09-18T20:56:29.539Z,96472.59
2022-09-18T20:58:59.139Z,96472.16
2022-09-18T21:01:28.871Z,96474.78
2022-09-18T21:03:59.839Z,96470.56
2022-09-18T21:06:31.755Z,96475.97
2022-09-18T21:09:00.986Z,96472.94
2022-09-18T21:11:30.786Z,96473.13
2022-09-18T21:14:01.384Z,96473.31
2022-09-18T21:16:31.437Z,96472.69
2022-09-18T21:19:01.862Z,96469.47
2022-09-18T21:21:31.915Z,96454.19
2022-09-18T21:24:01.339Z,96454.56
2022-09-18T21:26:31.585Z,96453.13
2022-09-18T21:29:02.597Z,96454.13
2022-09-18T21:31:31.135Z,96448.47
2022-09-18T21:34:00.172Z,96438.41
2022-09-18T21:36:28.782Z,96443.81
2022-09-18T21:38:56.472Z,96441.41
2022-09-18T21:41:25.544Z,96445.81
2022-09-18T21:43:54.014Z,96447.44
2022-09-18T21:46:24.192Z,96442.84
2022-09-18T21:48:54.604Z,96441.84
2022-09-18T21:51:22.572Z,96449.47
2022-09-18T21:53:50.858Z,96445.88
2022-09-18T21:56:20.862Z,96444.25
2022-09-18T21:58:48.962Z,96445.06
2022-09-18T22:01:19.241Z,96447.84
2022-09-18T22:03:53.324Z,96449.84
2022-09-18T22:06:22.950Z,96446.63
2022-09-18T22:08:54.403Z,96452.22
2022-09-18T22:11:24.648Z,96449.00
2022-09-18T22:13:53.111Z,96459.44
2022-09-18T22:16:21.044Z,96463.06
2022-09-18T22:18:50.087Z,96459.84
2022-09-18T22:21:21.200Z,96459.22
2022-09-18T22:23:50.188Z,96463.41
2022-09-18T22:26:18.220Z,96464.22
2022-09-18T22:28:48.759Z,96460.81
2022-09-18T22:31:16.435Z,96461.19
2022-09-18T22:33:45.187Z,96463.38
2022-09-18T22:36:14.823Z,96469.59
2022-09-18T22:38:42.554Z,96464.56
2022-09-18T22:41:10.764Z,96480.22
2022-09-18T22:43:38.404Z,96488.44
2022-09-18T22:46:07.811Z,96488.97
2022-09-18T22:48:36.311Z,96495.38
2022-09-18T22:51:06.030Z,96493.16
2022-09-18T22:53:36.604Z,96493.31
2022-09-18T22:56:06.357Z,96492.34
2022-09-18T22:58:35.331Z,96492.34
2022-09-18T23:01:08.737Z,96498.53
2022-09-18T23:03:37.479Z,96495.75
2022-09-18T23:06:06.982Z,96500.53
2022-09-18T23:08:36.562Z,96503.94
2022-09-18T23:11:08.486Z,96507.75
2022-09-18T23:13:36.204Z,96507.94
2022-09-18T23:16:06.014Z,96516.94
2022-09-18T23:18:34.303Z,96518.94
2022-09-18T23:21:03.470Z,96519.47
2022-09-18T23:23:32.805Z,96514.38
2022-09-18T23:26:08.450Z,96534.00
2022-09-18T23:28:37.876Z,96533.72
2022-09-18T23:31:07.274Z,96541.94
2022-09-18T23:33:35.477Z,96542.31
2022-09-18T23:36:08.504Z,96544.28
2022-09-18T23:38:36.333Z,96541.06
2022-09-18T23:41:07.066Z,96549.84
2022-09-18T23:43:35.320Z,96546.25
2022-09-18T23:46:03.554Z,96556.06
2022-09-18T23:48:31.514Z,96553.63
